Oak Grove, Michigan
Current Conditions -  °F | °C
As of 5:55 PM on Saturday 25 Oct 2014 (Local Time) from KOZW Reporting Station
Clear Clear  
Wind Chill: 61°   Ceiling: Unl
Heat Index: 61°   Visibility: 10mi
Dew Point: 31°   Wind: 18mph
Humidity: 31%   Direction: 270°W
Pressure: 29.77"   Gusts: 31mph
Location:  42.7°N, 83.91°W
Report Text: KOZW 252155Z AUTO 27016G27KT 10SM CLR 16/M01 A2977 RMK AO2 T01631008
Loading
Personal Weather Stations






























Interactive Weather Map
Tropical Storm Tracking
New forecast layout! Learn more

10-Day Weather Forecast

Advertisements
Track Severe Weather on mobile